createdAt,value
2018-01-08T00:01:00.277Z,3.50
2018-01-08T00:03:27.818Z,3.50
2018-01-08T00:05:55.344Z,3.50
2018-01-08T00:08:23.615Z,3.60
2018-01-08T00:10:51.908Z,3.60
2018-01-08T00:13:19.456Z,3.60
2018-01-08T00:15:47.733Z,3.60
2018-01-08T00:18:16.075Z,3.60
2018-01-08T00:20:43.568Z,3.60
2018-01-08T00:23:11.817Z,3.60
2018-01-08T00:25:39.355Z,3.60
2018-01-08T00:28:06.867Z,3.60
2018-01-08T00:30:34.386Z,3.70
2018-01-08T00:33:01.906Z,3.70
2018-01-08T00:35:29.410Z,3.70
2018-01-08T00:37:56.940Z,3.70
2018-01-08T00:40:24.447Z,3.70
2018-01-08T00:42:52.705Z,3.80
2018-01-08T00:45:20.978Z,3.70
2018-01-08T00:47:48.496Z,3.70
2018-01-08T00:50:15.972Z,3.70
2018-01-08T00:52:43.465Z,3.70
2018-01-08T00:55:11.714Z,3.80
2018-01-08T00:57:39.233Z,3.80
2018-01-08T01:00:06.730Z,3.80
2018-01-08T01:02:34.280Z,3.60
2018-01-08T01:05:01.764Z,3.70
2018-01-08T01:07:29.264Z,3.60
2018-01-08T01:09:56.764Z,3.60
2018-01-08T01:12:24.283Z,3.60
2018-01-08T01:14:51.770Z,3.60
2018-01-08T01:17:19.279Z,3.60
2018-01-08T01:19:46.785Z,3.60
2018-01-08T01:22:14.269Z,3.60
2018-01-08T01:24:41.788Z,3.60
2018-01-08T01:27:09.281Z,3.60
2018-01-08T01:29:36.775Z,3.70
2018-01-08T01:32:04.272Z,3.70
2018-01-08T01:34:31.829Z,3.60
2018-01-08T01:36:59.358Z,3.60
2018-01-08T01:39:26.867Z,3.60
2018-01-08T01:41:54.603Z,3.60
2018-01-08T01:44:22.131Z,3.60
2018-01-08T01:46:49.635Z,3.60
2018-01-08T01:49:20.856Z,3.60
2018-01-08T01:51:48.350Z,3.60
2018-01-08T01:54:15.850Z,3.60
2018-01-08T01:56:43.359Z,3.60
2018-01-08T01:59:10.849Z,3.60
2018-01-08T02:01:38.356Z,3.60
2018-01-08T02:04:05.825Z,3.60
2018-01-08T02:06:33.908Z,3.60
2018-01-08T02:09:01.415Z,3.60
2018-01-08T02:11:28.899Z,3.60
2018-01-08T02:14:02.447Z,3.50
2018-01-08T02:16:30.701Z,3.60
2018-01-08T02:18:58.198Z,3.60
2018-01-08T02:21:25.692Z,3.60
2018-01-08T02:23:53.175Z,3.40
2018-01-08T02:26:20.678Z,3.70
2018-01-08T02:28:48.171Z,3.60
2018-01-08T02:31:15.725Z,3.60
2018-01-08T02:33:43.190Z,3.50
2018-01-08T02:36:10.690Z,3.60
2018-01-08T02:38:38.203Z,3.60
2018-01-08T02:41:05.725Z,3.60
2018-01-08T02:43:33.212Z,3.60
2018-01-08T02:46:00.699Z,3.60
2018-01-08T02:48:28.199Z,3.60
2018-01-08T02:50:55.699Z,3.60
2018-01-08T02:53:23.176Z,3.60
2018-01-08T02:55:51.440Z,3.60
2018-01-08T02:58:18.918Z,3.60
2018-01-08T03:00:46.421Z,3.60
2018-01-08T03:03:13.927Z,3.60
2018-01-08T03:05:42.179Z,3.60
2018-01-08T03:08:09.685Z,3.60
2018-01-08T03:10:37.214Z,3.60
2018-01-08T03:13:04.704Z,3.60
2018-01-08T03:15:32.197Z,3.60
2018-01-08T03:17:59.705Z,3.60
2018-01-08T03:20:27.955Z,3.60
2018-01-08T03:22:55.471Z,3.60
2018-01-08T03:25:22.961Z,3.60
2018-01-08T03:27:50.464Z,3.60
2018-01-08T03:30:17.984Z,3.60
2018-01-08T03:32:45.477Z,3.60
2018-01-08T03:35:12.954Z,3.60
2018-01-08T03:37:40.457Z,3.60
2018-01-08T03:40:07.954Z,3.60
2018-01-08T03:42:35.437Z,3.60
2018-01-08T03:45:02.928Z,3.50
2018-01-08T03:47:30.398Z,3.60
2018-01-08T03:49:59.348Z,3.60
2018-01-08T03:52:30.195Z,3.60
2018-01-08T03:54:57.829Z,3.70
2018-01-08T03:57:27.124Z,3.60
2018-01-08T03:59:55.852Z,3.70
2018-01-08T04:02:24.226Z,3.70
2018-01-08T04:04:51.950Z,3.70
2018-01-08T04:07:21.111Z,3.70
2018-01-08T04:09:49.407Z,3.60
2018-01-08T04:12:17.670Z,3.70
2018-01-08T04:14:45.210Z,3.60
2018-01-08T04:17:13.551Z,3.60
2018-01-08T04:19:41.080Z,3.60
2018-01-08T04:22:08.654Z,3.60
2018-01-08T04:24:36.564Z,3.60
2018-01-08T04:27:04.095Z,3.60
2018-01-08T04:29:31.622Z,3.70
2018-01-08T04:31:59.139Z,3.50
2018-01-08T04:34:26.670Z,3.60
2018-01-08T04:36:54.154Z,3.60
2018-01-08T04:39:21.683Z,3.60
2018-01-08T04:41:49.189Z,3.60
2018-01-08T04:44:16.673Z,3.60
2018-01-08T04:46:44.191Z,3.60
2018-01-08T04:49:11.680Z,3.50
2018-01-08T04:51:39.198Z,3.60
2018-01-08T04:54:06.708Z,3.50
2018-01-08T04:56:34.213Z,3.50
2018-01-08T04:59:04.648Z,3.50
2018-01-08T05:01:32.970Z,3.50
2018-01-08T05:04:00.477Z,3.50
2018-01-08T05:06:29.586Z,3.40
2018-01-08T05:08:59.975Z,3.40
2018-01-08T05:11:27.645Z,3.40
2018-01-08T05:13:59.957Z,3.40
2018-01-08T05:16:28.231Z,3.40
2018-01-08T05:18:56.554Z,0.40
2018-01-08T05:21:24.053Z,3.40
2018-01-08T05:23:51.640Z,3.40
2018-01-08T05:26:20.982Z,3.40
2018-01-08T05:28:48.566Z,3.40
2018-01-08T05:31:16.107Z,3.30
2018-01-08T05:33:43.645Z,3.40
2018-01-08T05:36:12.214Z,3.40
2018-01-08T05:38:40.098Z,3.40
2018-01-08T05:41:09.972Z,3.40
2018-01-08T05:43:38.302Z,3.30
2018-01-08T05:46:06.815Z,3.30
2018-01-08T05:48:34.401Z,3.30
2018-01-08T05:51:02.657Z,3.30
2018-01-08T05:53:34.750Z,3.30
2018-01-08T05:56:02.311Z,3.30
2018-01-08T05:58:30.704Z,3.40
2018-01-08T06:00:58.236Z,3.30
2018-01-08T06:03:26.501Z,3.30
2018-01-08T06:05:54.039Z,3.30
2018-01-08T06:08:21.538Z,3.30
2018-01-08T06:10:49.034Z,3.30
2018-01-08T06:13:16.516Z,3.20
2018-01-08T06:15:43.977Z,3.20
2018-01-08T06:18:11.483Z,3.30
2018-01-08T06:20:38.976Z,3.20
2018-01-08T06:23:06.457Z,3.20
2018-01-08T06:25:33.976Z,3.20
2018-01-08T06:28:01.466Z,3.30
2018-01-08T06:30:28.985Z,3.30
2018-01-08T06:32:56.471Z,3.20
2018-01-08T06:35:23.981Z,3.30
2018-01-08T06:37:51.494Z,3.20
2018-01-08T06:40:19.016Z,3.30
2018-01-08T06:42:46.516Z,3.20
2018-01-08T06:45:14.246Z,3.20
2018-01-08T06:47:41.730Z,3.30
2018-01-08T06:50:09.267Z,3.30
2018-01-08T06:52:36.769Z,3.20
2018-01-08T06:55:04.271Z,3.30
2018-01-08T06:57:31.783Z,3.30
2018-01-08T07:00:00.075Z,3.30
2018-01-08T07:02:28.336Z,3.30
2018-01-08T07:04:56.584Z,3.30
2018-01-08T07:07:24.307Z,3.20
2018-01-08T07:09:51.808Z,3.30
2018-01-08T07:12:19.656Z,3.30
2018-01-08T07:14:47.179Z,3.30
2018-01-08T07:17:14.688Z,3.40
2018-01-08T07:19:42.206Z,3.40
2018-01-08T07:22:09.697Z,3.30
2018-01-08T07:24:37.225Z,3.30
2018-01-08T07:27:04.747Z,3.30
2018-01-08T07:29:32.279Z,3.40
2018-01-08T07:31:59.754Z,3.40
2018-01-08T07:34:28.012Z,3.40
2018-01-08T07:36:55.508Z,3.30
2018-01-08T07:39:23.539Z,3.30
2018-01-08T07:41:51.100Z,3.40
2018-01-08T07:44:19.420Z,3.40
2018-01-08T07:46:47.015Z,3.40
2018-01-08T07:49:15.474Z,3.40
2018-01-08T07:51:43.032Z,3.30
2018-01-08T07:54:10.544Z,3.30
2018-01-08T07:56:38.073Z,3.40
2018-01-08T07:59:06.172Z,3.40
2018-01-08T08:01:35.950Z,3.20
2018-01-08T08:04:03.958Z,3.20
2018-01-08T08:06:33.269Z,3.30
2018-01-08T08:09:00.868Z,3.30
2018-01-08T08:11:28.372Z,3.40
2018-01-08T08:13:56.651Z,3.30
2018-01-08T08:16:25.598Z,3.30
2018-01-08T08:18:53.609Z,3.40
2018-01-08T08:21:21.212Z,3.30
2018-01-08T08:23:48.922Z,3.30
2018-01-08T08:26:17.511Z,3.40
2018-01-08T08:28:45.137Z,3.40
2018-01-08T08:31:12.728Z,3.40
2018-01-08T08:33:40.369Z,3.30
2018-01-08T08:36:07.875Z,3.30
2018-01-08T08:38:36.162Z,3.30
2018-01-08T08:41:04.692Z,3.20
2018-01-08T08:43:32.220Z,3.40
2018-01-08T08:45:59.736Z,3.40
2018-01-08T08:48:28.158Z,3.40
2018-01-08T08:50:56.733Z,3.40
2018-01-08T08:53:24.313Z,3.40
2018-01-08T08:55:51.870Z,3.30
2018-01-08T08:58:19.405Z,3.30
2018-01-08T09:00:46.982Z,3.30
2018-01-08T09:03:16.674Z,3.30
2018-01-08T09:05:44.263Z,3.30
2018-01-08T09:08:11.820Z,3.30
2018-01-08T09:10:42.104Z,3.30
2018-01-08T09:13:11.293Z,3.30
2018-01-08T09:15:38.915Z,3.30
2018-01-08T09:20:47.601Z,3.30
2018-01-08T09:23:15.178Z,2.60
2018-01-08T09:25:42.693Z,3.30
2018-01-08T09:28:10.241Z,3.30
2018-01-08T09:30:38.541Z,3.30
2018-01-08T09:33:06.866Z,3.30
2018-01-08T09:35:34.420Z,3.30
2018-01-08T09:38:01.969Z,3.30
2018-01-08T09:40:29.523Z,3.30
2018-01-08T09:42:57.086Z,3.30
2018-01-08T09:45:24.634Z,3.30
2018-01-08T09:47:52.217Z,3.30
2018-01-08T09:50:19.736Z,3.30
2018-01-08T09:52:47.837Z,3.30
2018-01-08T09:55:15.420Z,3.30
2018-01-08T09:57:45.318Z,3.30
2018-01-08T10:00:15.245Z,3.30
2018-01-08T10:02:57.328Z,3.30
2018-01-08T10:05:36.902Z,3.30
2018-01-08T10:08:16.376Z,3.30
2018-01-08T10:10:57.245Z,3.30
2018-01-08T10:13:37.258Z,3.20
2018-01-08T10:16:18.051Z,3.30
2018-01-08T10:18:46.296Z,3.30
2018-01-08T10:21:13.837Z,3.20
2018-01-08T10:23:42.483Z,3.20
2018-01-08T10:26:10.760Z,3.20
2018-01-08T10:28:39.015Z,3.30
2018-01-08T10:31:06.575Z,3.30
2018-01-08T10:33:34.120Z,3.40
2018-01-08T10:36:01.643Z,3.30
2018-01-08T10:38:29.133Z,3.30
2018-01-08T10:40:56.219Z,3.30
2018-01-08T10:43:30.203Z,3.40
2018-01-08T10:46:03.312Z,3.30
2018-01-08T10:48:36.444Z,3.40
2018-01-08T10:51:09.490Z,3.40
2018-01-08T10:53:37.450Z,3.30
2018-01-08T10:56:05.715Z,3.50
2018-01-08T10:58:33.195Z,3.40
2018-01-08T11:01:06.388Z,3.40
2018-01-08T11:03:40.393Z,3.40
2018-01-08T11:06:08.693Z,3.40
2018-01-08T11:08:36.274Z,3.40
2018-01-08T11:11:03.801Z,3.40
2018-01-08T11:13:31.354Z,3.40
2018-01-08T11:15:58.852Z,3.50
2018-01-08T11:18:26.365Z,3.40
2018-01-08T11:20:53.887Z,3.40
2018-01-08T11:23:22.225Z,3.50
2018-01-08T11:25:49.751Z,3.40
2018-01-08T11:28:17.285Z,3.40
2018-01-08T11:30:44.811Z,3.50
2018-01-08T11:33:12.330Z,3.50
2018-01-08T11:35:40.591Z,3.60
2018-01-08T11:38:08.106Z,3.40
2018-01-08T11:40:35.594Z,3.50
2018-01-08T11:43:03.123Z,3.50
2018-01-08T11:45:30.648Z,3.50
2018-01-08T11:47:58.147Z,3.50
2018-01-08T11:50:25.647Z,3.50
2018-01-08T11:52:53.945Z,3.40
2018-01-08T11:55:21.447Z,3.50
2018-01-08T11:57:48.960Z,3.60
2018-01-08T12:00:17.233Z,4.80
2018-01-08T12:02:44.772Z,3.60
2018-01-08T12:05:13.719Z,3.60
2018-01-08T12:07:41.224Z,3.60
2018-01-08T12:10:08.753Z,3.60
2018-01-08T12:12:36.285Z,3.70
2018-01-08T12:15:03.794Z,3.60
2018-01-08T12:17:31.275Z,3.60
2018-01-08T12:19:59.533Z,3.60
2018-01-08T12:22:27.046Z,3.70
2018-01-08T12:24:54.552Z,3.70
2018-01-08T12:27:22.819Z,3.80
2018-01-08T12:29:51.091Z,3.80
2018-01-08T12:32:19.371Z,3.80
2018-01-08T12:34:47.649Z,3.80
2018-01-08T12:37:15.913Z,3.80
2018-01-08T12:39:43.410Z,3.70
2018-01-08T12:42:11.351Z,3.80
2018-01-08T12:44:39.623Z,3.80
2018-01-08T12:47:07.135Z,3.80
2018-01-08T12:49:34.625Z,3.80
2018-01-08T12:52:02.147Z,3.80
2018-01-08T12:54:29.755Z,3.80
2018-01-08T12:56:57.272Z,3.80
2018-01-08T12:59:24.797Z,3.80
2018-01-08T13:01:53.055Z,3.80
2018-01-08T13:04:21.341Z,3.90
2018-01-08T13:06:48.864Z,3.80
2018-01-08T13:09:16.351Z,3.80
2018-01-08T13:11:43.882Z,4.00
2018-01-08T13:14:11.367Z,3.90
2018-01-08T13:16:39.676Z,3.90
2018-01-08T13:19:07.292Z,3.80
2018-01-08T13:21:34.864Z,3.80
2018-01-08T13:24:02.422Z,3.80
2018-01-08T13:26:30.443Z,3.80
2018-01-08T13:28:57.962Z,3.80
2018-01-08T13:31:25.488Z,3.90
2018-01-08T13:33:53.045Z,3.90
2018-01-08T13:36:20.590Z,4.00
2018-01-08T13:38:48.166Z,3.90
2018-01-08T13:41:15.809Z,3.90
2018-01-08T13:43:43.553Z,3.90
2018-01-08T13:46:11.110Z,3.90
2018-01-08T13:48:38.844Z,4.00
2018-01-08T13:51:06.357Z,3.90
2018-01-08T13:53:33.891Z,4.00
2018-01-08T13:56:01.814Z,4.00
2018-01-08T13:58:29.345Z,4.00
2018-01-08T14:00:56.883Z,3.90
2018-01-08T14:03:24.390Z,3.90
2018-01-08T14:05:51.989Z,4.00
2018-01-08T14:08:20.884Z,4.00
2018-01-08T14:10:48.438Z,4.00
2018-01-08T14:13:16.005Z,4.00
2018-01-08T14:15:43.575Z,4.00
2018-01-08T14:18:11.132Z,4.00
2018-01-08T14:20:38.701Z,4.00
2018-01-08T14:23:06.251Z,4.00
2018-01-08T14:25:33.763Z,4.00
2018-01-08T14:28:01.253Z,4.00
2018-01-08T14:30:28.843Z,4.00
2018-01-08T14:32:56.390Z,4.00
2018-01-08T14:35:23.983Z,4.00
2018-01-08T14:37:51.589Z,4.00
2018-01-08T14:40:19.174Z,4.00
2018-01-08T14:42:46.690Z,4.00
2018-01-08T14:45:14.238Z,4.10
2018-01-08T14:47:41.776Z,4.10
2018-01-08T14:50:09.412Z,4.10
2018-01-08T14:52:36.914Z,4.10
2018-01-08T14:55:05.178Z,4.00
2018-01-08T14:57:32.713Z,4.00
2018-01-08T15:00:00.207Z,4.20
2018-01-08T15:02:28.471Z,4.10
2018-01-08T15:04:55.980Z,4.00
2018-01-08T15:07:23.500Z,4.10
2018-01-08T15:09:51.028Z,4.10
2018-01-08T15:12:18.595Z,4.10
2018-01-08T15:14:46.111Z,4.10
2018-01-08T15:17:13.597Z,4.20
2018-01-08T15:19:41.094Z,4.10
2018-01-08T15:22:08.614Z,4.20
2018-01-08T15:24:36.132Z,4.00
2018-01-08T15:27:03.684Z,4.10
2018-01-08T15:29:31.929Z,4.10
2018-01-08T15:32:00.203Z,4.10
2018-01-08T15:34:27.687Z,4.10
2018-01-08T15:36:55.199Z,4.30
2018-01-08T15:39:22.706Z,4.10
2018-01-08T15:41:50.506Z,4.10
2018-01-08T15:44:18.000Z,4.30
2018-01-08T15:46:45.512Z,4.10
2018-01-08T15:49:13.025Z,4.20
2018-01-08T15:51:40.512Z,4.10
2018-01-08T15:54:08.255Z,4.10
2018-01-08T15:56:36.068Z,4.10
2018-01-08T15:59:03.719Z,4.10
2018-01-08T16:01:31.292Z,4.10
2018-01-08T16:03:58.862Z,4.20
2018-01-08T16:06:26.369Z,4.10
2018-01-08T16:08:53.907Z,4.20
2018-01-08T16:11:21.438Z,4.10
2018-01-08T16:13:48.975Z,4.20
2018-01-08T16:16:17.603Z,4.20
2018-01-08T16:18:45.938Z,4.20
2018-01-08T16:21:13.844Z,4.10
2018-01-08T16:23:41.471Z,4.20
2018-01-08T16:26:09.109Z,4.20
2018-01-08T16:28:36.647Z,4.20
2018-01-08T16:31:04.176Z,4.20
2018-01-08T16:33:32.479Z,4.30
2018-01-08T16:35:59.963Z,4.20
2018-01-08T16:38:27.485Z,4.30
2018-01-08T16:40:54.991Z,4.30
2018-01-08T16:43:22.478Z,4.30
2018-01-08T16:45:50.051Z,4.30
2018-01-08T16:48:17.568Z,4.30
2018-01-08T16:50:45.191Z,4.30
2018-01-08T16:53:12.788Z,4.40
2018-01-08T16:55:40.290Z,4.30
2018-01-08T16:58:08.635Z,4.30
2018-01-08T17:00:36.167Z,4.20
2018-01-08T17:03:04.495Z,4.30
2018-01-08T17:05:32.050Z,4.40
2018-01-08T17:08:01.063Z,4.30
2018-01-08T17:10:29.222Z,4.30
2018-01-08T17:12:56.828Z,4.30
2018-01-08T17:15:24.346Z,4.40
2018-01-08T17:17:51.869Z,4.40
2018-01-08T17:20:19.375Z,4.40
2018-01-08T17:22:47.684Z,4.40
2018-01-08T17:25:15.210Z,4.40
2018-01-08T17:27:42.748Z,4.40
2018-01-08T17:30:10.280Z,4.40
2018-01-08T17:32:37.776Z,4.40
2018-01-08T17:35:05.309Z,4.40
2018-01-08T17:37:32.814Z,4.40
2018-01-08T17:40:00.298Z,4.40
2018-01-08T17:42:27.820Z,4.50
2018-01-08T17:44:55.352Z,4.50
2018-01-08T17:47:22.861Z,4.50
2018-01-08T17:49:50.371Z,4.50
2018-01-08T17:52:17.884Z,4.50
2018-01-08T17:54:45.395Z,4.60
2018-01-08T17:57:12.883Z,4.60
2018-01-08T17:59:40.469Z,4.50
2018-01-08T18:02:07.935Z,4.50
2018-01-08T18:04:35.481Z,4.50
2018-01-08T18:07:02.974Z,4.50
2018-01-08T18:09:30.517Z,4.60
2018-01-08T18:11:58.011Z,4.50
2018-01-08T18:14:26.278Z,4.50
2018-01-08T18:16:54.029Z,4.50
2018-01-08T18:19:22.333Z,4.50
2018-01-08T18:21:50.615Z,6.00
2018-01-08T18:24:18.137Z,4.50
2018-01-08T18:26:45.609Z,4.50
2018-01-08T18:29:13.884Z,4.60
2018-01-08T18:31:42.175Z,4.50
2018-01-08T18:34:10.435Z,4.60
2018-01-08T18:36:38.718Z,4.50
2018-01-08T18:39:07.001Z,4.50
2018-01-08T18:44:08.355Z,4.50
2018-01-08T18:46:35.860Z,4.50
2018-01-08T18:49:03.334Z,4.60
2018-01-08T18:51:30.836Z,4.60
2018-01-08T18:53:59.248Z,4.50
2018-01-08T18:56:26.767Z,4.50
2018-01-08T18:58:55.023Z,4.50
2018-01-08T19:01:22.506Z,4.50
2018-01-08T19:03:50.069Z,4.50
2018-01-08T19:06:17.577Z,4.50
2018-01-08T19:08:45.852Z,4.50
2018-01-08T19:11:13.368Z,4.50
2018-01-08T19:13:41.671Z,4.50
2018-01-08T19:16:09.164Z,4.50
2018-01-08T19:18:36.721Z,4.50
2018-01-08T19:21:04.464Z,4.40
2018-01-08T19:23:33.513Z,4.50
2018-01-08T19:26:01.037Z,4.50
2018-01-08T19:28:28.563Z,4.50
2018-01-08T19:30:56.060Z,4.60
2018-01-08T19:33:23.564Z,4.40
2018-01-08T19:35:51.073Z,4.60
2018-01-08T19:38:19.115Z,4.60
2018-01-08T19:40:46.605Z,4.60
2018-01-08T19:43:14.076Z,4.60
2018-01-08T19:45:42.332Z,4.50
2018-01-08T19:48:10.603Z,4.50
2018-01-08T19:50:38.109Z,4.50
2018-01-08T19:53:05.600Z,4.50
2018-01-08T19:55:33.104Z,4.40
2018-01-08T19:58:01.356Z,4.50
2018-01-08T20:00:28.859Z,4.40
2018-01-08T20:02:56.381Z,4.40
2018-01-08T20:05:23.893Z,4.40
2018-01-08T20:07:51.416Z,4.40
2018-01-08T20:10:18.978Z,4.40
2018-01-08T20:12:46.514Z,4.40
2018-01-08T20:15:14.019Z,4.40
2018-01-08T20:17:41.533Z,4.40
2018-01-08T20:20:09.046Z,4.40
2018-01-08T20:22:36.592Z,4.50
2018-01-08T20:25:04.888Z,4.50
2018-01-08T20:27:32.403Z,4.40
2018-01-08T20:30:00.653Z,4.40
2018-01-08T20:32:28.177Z,4.40
2018-01-08T20:34:55.651Z,4.50
2018-01-08T20:37:23.159Z,4.50
2018-01-08T20:39:51.428Z,4.40
2018-01-08T20:42:19.696Z,4.40
2018-01-08T20:44:47.210Z,4.30
2018-01-08T20:47:14.687Z,4.40
2018-01-08T20:49:42.156Z,4.40
2018-01-08T20:52:11.196Z,4.40
2018-01-08T20:54:39.565Z,4.40
2018-01-08T20:57:07.090Z,4.30
2018-01-08T20:59:35.479Z,4.40
2018-01-08T21:02:03.140Z,4.30
2018-01-08T21:04:30.756Z,4.30
2018-01-08T21:06:58.292Z,4.30
2018-01-08T21:09:26.697Z,4.30
2018-01-08T21:11:55.097Z,4.30
2018-01-08T21:14:22.709Z,4.40
2018-01-08T21:16:50.338Z,4.30
2018-01-08T21:19:17.974Z,4.30
2018-01-08T21:21:45.483Z,4.30
2018-01-08T21:24:13.066Z,4.30
2018-01-08T21:26:40.563Z,4.30
2018-01-08T21:29:08.054Z,4.30
2018-01-08T21:31:35.543Z,4.30
2018-01-08T21:34:03.818Z,4.20
2018-01-08T21:36:31.306Z,4.20
2018-01-08T21:38:58.789Z,4.80
2018-01-08T21:41:27.069Z,4.20
2018-01-08T21:43:54.532Z,4.20
2018-01-08T21:46:22.001Z,4.20
2018-01-08T21:48:49.528Z,4.20
2018-01-08T21:51:16.992Z,4.20
2018-01-08T21:53:44.545Z,4.20
2018-01-08T21:56:12.797Z,4.20
2018-01-08T21:58:40.285Z,4.20
2018-01-08T22:01:08.538Z,4.20
2018-01-08T22:03:36.030Z,4.20
2018-01-08T22:06:03.524Z,4.20
2018-01-08T22:08:31.015Z,4.20
2018-01-08T22:10:58.489Z,4.20
2018-01-08T22:13:25.974Z,4.20
2018-01-08T22:15:53.453Z,4.20
2018-01-08T22:18:20.966Z,4.20
2018-01-08T22:20:49.212Z,4.20
2018-01-08T22:23:16.742Z,4.10
2018-01-08T22:25:44.243Z,4.10
2018-01-08T22:28:11.728Z,4.10
2018-01-08T22:30:39.964Z,4.20
2018-01-08T22:33:07.488Z,4.20
2018-01-08T22:35:34.972Z,4.20
2018-01-08T22:38:02.663Z,4.20
2018-01-08T22:40:30.184Z,4.10
2018-01-08T22:42:57.660Z,4.10
2018-01-08T22:45:25.507Z,4.00
2018-01-08T22:47:53.082Z,4.10
2018-01-08T22:50:20.629Z,4.20
2018-01-08T22:52:48.135Z,4.10
2018-01-08T22:55:15.701Z,4.20
2018-01-08T22:57:43.191Z,4.10
2018-01-08T23:00:11.302Z,4.10
2018-01-08T23:02:39.669Z,4.20
2018-01-08T23:05:07.984Z,4.20
2018-01-08T23:07:36.161Z,4.20
2018-01-08T23:10:03.724Z,4.10
2018-01-08T23:12:32.166Z,4.10
2018-01-08T23:14:59.750Z,4.10
2018-01-08T23:17:27.316Z,4.10
2018-01-08T23:19:54.860Z,4.10
2018-01-08T23:22:22.442Z,4.10
2018-01-08T23:24:50.078Z,4.10
2018-01-08T23:27:17.578Z,4.20
2018-01-08T23:29:45.145Z,4.10
2018-01-08T23:32:12.668Z,4.10
2018-01-08T23:34:40.300Z,4.10
2018-01-08T23:37:08.660Z,4.00
2018-01-08T23:39:36.976Z,4.00
2018-01-08T23:42:04.519Z,4.00
2018-01-08T23:44:32.199Z,4.00
2018-01-08T23:47:00.607Z,4.00
2018-01-08T23:49:28.158Z,4.00
2018-01-08T23:51:55.724Z,4.00
2018-01-08T23:54:23.997Z,4.00
2018-01-08T23:56:51.718Z,4.00
2018-01-08T23:59:19.838Z,4.00
